Time;durP1;ratioP1;P1;durP2;ratioP2;P2;SDS_P1;SDS_P2;PMS_P1;PMS_P2;Temp;Humidity;BMP_temperature;BMP_pressure;BME280_temperature;BME280_humidity;BME280_pressure;Samples;Min_cycle;Max_cycle;Signal;HPM_P1;HPM_P2
2022/10/21 00:02:51;;;;;;;44.90;42.30;;;;;;;8.47;100.00;102190.63;5104153;22;20056;-80
2022/10/21 00:05:18;;;;;;;44.15;41.65;;;;;;;8.46;100.00;102200.38;5074416;28;20119;-77
2022/10/21 00:07:45;;;;;;;42.42;39.97;;;;;;;8.41;100.00;102204.47;5068598;28;20036;-78
2022/10/21 00:10:13;;;;;;;47.85;45.00;;;;;;;8.39;99.36;102204.66;5069379;28;20384;-78
2022/10/21 00:12:41;;;;;;;47.08;44.55;;;;;;;8.42;98.82;102207.00;5077518;28;20056;-77
2022/10/21 00:15:10;;;;;;;43.53;40.85;;;;;;;8.42;97.82;102200.88;5070962;28;20049;-79
2022/10/21 00:17:39;;;;;;;44.58;41.92;;;;;;;8.37;97.73;102200.47;5076560;28;20479;-78
2022/10/21 00:20:09;;;;;;;42.20;39.90;;;;;;;8.27;100.00;102201.41;5069808;28;20470;-79
2022/10/21 00:22:36;;;;;;;42.55;40.17;;;;;;;8.27;100.00;102206.69;5075869;28;20047;-76
2022/10/21 00:25:04;;;;;;;42.53;39.80;;;;;;;8.53;100.00;102208.53;5078911;28;20141;-79
2022/10/21 00:27:31;;;;;;;41.90;39.50;;;;;;;8.33;100.00;102207.06;5072766;28;20056;-77
2022/10/21 00:29:59;;;;;;;48.10;45.22;;;;;;;8.31;100.00;102204.56;5068441;28;20481;-79
2022/10/21 00:32:26;;;;;;;44.75;41.95;;;;;;;8.29;100.00;102198.59;5073903;28;20489;-79
2022/10/21 00:34:53;;;;;;;44.45;41.72;;;;;;;8.30;100.00;102197.63;5066216;28;20475;-79
2022/10/21 00:37:20;;;;;;;44.58;41.95;;;;;;;8.30;99.47;102194.13;5066826;28;20117;-79
2022/10/21 00:39:47;;;;;;;88.60;83.80;;;;;;;8.33;95.73;102194.66;5077744;28;20480;-81
2022/10/21 00:42:16;;;;;;;93.35;88.40;;;;;;;8.27;93.67;102184.69;5081830;28;20105;-77
2022/10/21 00:44:43;;;;;;;98.13;93.20;;;;;;;8.38;94.34;102192.41;5081526;28;20047;-80
2022/10/21 00:47:20;;;;;;;100.18;95.10;;;;;;;8.25;90.11;102192.75;5076000;28;20044;-80
2022/10/21 00:49:53;;;;;;;87.43;82.72;;;;;;;8.38;87.98;102194.16;5067848;28;20048;-82
2022/10/21 00:52:22;;;;;;;88.85;84.30;;;;;;;8.30;88.74;102196.78;5059144;28;20045;-77
2022/10/21 00:54:54;;;;;;;93.05;88.15;;;;;;;8.21;87.75;102203.84;5061481;28;20045;-77
2022/10/21 00:57:22;;;;;;;92.10;86.03;;;;;;;8.21;86.35;102206.47;5076565;28;20045;-79
2022/10/21 00:59:53;;;;;;;85.90;81.60;;;;;;;8.08;87.20;102204.22;5074462;28;20480;-78
2022/10/21 01:02:21;;;;;;;81.65;77.45;;;;;;;8.01;88.49;102208.47;5070610;28;20060;-81
2022/10/21 01:04:52;;;;;;;62.58;59.28;;;;;;;7.96;88.75;102202.81;5074423;28;20079;-79
2022/10/21 01:07:20;;;;;;;59.78;56.35;;;;;;;7.90;89.48;102198.97;5070951;28;20431;-80
2022/10/21 01:09:47;;;;;;;47.10;44.55;;;;;;;7.78;89.48;102205.47;5074341;28;20389;-80
2022/10/21 01:12:25;;;;;;;46.83;44.15;;;;;;;7.74;91.28;102204.09;5078648;28;20541;-77
2022/10/21 01:14:56;;;;;;;50.83;47.80;;;;;;;7.67;92.33;102197.75;5078952;28;20397;-77
2022/10/21 01:17:39;;;;;;;45.47;42.42;;;;;;;7.56;94.28;102193.50;5076025;28;20049;-77
2022/10/21 01:20:29;;;;;;;49.25;46.75;;;;;;;7.52;95.21;102194.78;5072979;28;20447;-79
2022/10/21 01:23:24;;;;;;;49.72;46.67;;;;;;;7.36;95.28;102191.97;5073240;28;20547;-81
2022/10/21 01:26:14;;;;;;;47.90;45.33;;;;;;;7.40;96.48;102185.41;5068737;28;20118;-82
2022/10/21 01:28:55;;;;;;;51.40;48.47;;;;;;;7.64;97.76;102183.00;5068987;28;20102;-80
2022/10/21 01:31:30;;;;;;;51.03;48.42;;;;;;;7.39;95.17;102183.75;5076337;28;20056;-80
2022/10/21 01:34:01;;;;;;;48.97;46.17;;;;;;;7.38;95.30;102184.72;5067673;28;20061;-78
2022/10/21 01:36:33;;;;;;;50.25;47.70;;;;;;;7.39;94.01;102186.41;5083221;28;20044;-77
2022/10/21 01:39:17;;;;;;;52.45;49.75;;;;;;;7.41;92.43;102182.59;5075560;28;20052;-78
2022/10/21 01:41:51;;;;;;;43.35;41.15;;;;;;;7.28;93.86;102182.97;5081257;28;20133;-80
2022/10/21 01:44:26;;;;;;;48.30;45.72;;;;;;;7.38;92.77;102177.59;5071796;28;20480;-80
2022/10/21 01:46:59;;;;;;;45.03;42.47;;;;;;;7.45;95.53;102185.78;5074032;28;20056;-80
2022/10/21 01:49:34;;;;;;;44.78;42.35;;;;;;;7.36;94.84;102181.41;5082108;28;20052;-77
2022/10/21 01:52:02;;;;;;;51.13;48.20;;;;;;;7.36;94.88;102184.88;5063909;28;20056;-80
2022/10/21 01:54:33;;;;;;;47.88;45.28;;;;;;;7.38;95.06;102192.63;5071441;28;20126;-83
2022/10/21 01:57:03;;;;;;;44.33;41.63;;;;;;;7.46;93.94;102184.81;5069507;28;20053;-77
2022/10/21 01:59:32;;;;;;;43.20;40.80;;;;;;;7.42;94.60;102180.81;5076964;28;20045;-79
2022/10/21 02:02:06;;;;;;;43.25;40.75;;;;;;;7.53;93.90;102188.50;5072341;28;20059;-78
2022/10/21 02:04:36;;;;;;;46.10;43.47;;;;;;;7.52;94.08;102187.69;5070976;28;20421;-78
2022/10/21 02:07:03;;;;;;;45.08;42.78;;;;;;;7.51;92.37;102186.03;5072306;28;20057;-80
2022/10/21 02:09:32;;;;;;;44.75;42.28;;;;;;;7.45;91.15;102186.63;5079999;28;20110;-80
2022/10/21 02:12:01;;;;;;;47.67;44.85;;;;;;;7.58;93.39;102183.59;5069983;28;20050;-78
2022/10/21 02:14:33;;;;;;;45.60;42.78;;;;;;;7.36;93.43;102181.41;5069392;28;20052;-78
2022/10/21 02:17:00;;;;;;;52.88;49.92;;;;;;;7.42;92.88;102191.38;5072508;28;20522;-76
2022/10/21 02:19:29;;;;;;;49.40;46.80;;;;;;;7.41;94.66;102193.16;5079366;28;20541;-77
2022/10/21 02:22:02;;;;;;;44.00;41.35;;;;;;;7.43;93.45;102195.69;5079926;28;20052;-77
2022/10/21 02:24:33;;;;;;;;;;;;;;;7.39;95.21;102199.63;5068054;28;20048;-78
2022/10/21 02:27:00;;;;;;;44.80;42.35;;;;;;;7.38;94.63;102197.94;5079980;28;19924;-77
2022/10/21 02:29:33;;;;;;;44.85;42.20;;;;;;;7.32;95.11;102189.63;5073574;28;20048;-77
2022/10/21 02:32:09;;;;;;;46.05;43.63;;;;;;;7.34;95.45;102203.50;5079563;28;20531;-77
2022/10/21 02:34:46;;;;;;;46.47;43.83;;;;;;;7.10;96.04;102201.41;5081220;28;20056;-79
2022/10/21 02:37:23;;;;;;;46.55;44.15;;;;;;;7.21;97.75;102203.03;5079865;28;20053;-80
2022/10/21 02:39:54;;;;;;;47.22;44.50;;;;;;;7.08;96.92;102208.69;5071249;28;20049;-77
2022/10/21 02:42:27;;;;;;;45.38;42.97;;;;;;;7.20;96.52;102211.09;5071096;28;20102;-80
2022/10/21 02:44:55;;;;;;;44.85;42.45;;;;;;;7.20;96.72;102217.25;5077272;28;20060;-76
2022/10/21 02:47:25;;;;;;;43.13;40.20;;;;;;;7.18;93.85;102200.69;5073412;28;20086;-79
2022/10/21 02:49:53;;;;;;;46.78;44.10;;;;;;;7.16;94.32;102210.56;5063287;28;20041;-77
2022/10/21 02:52:20;;;;;;;44.03;41.72;;;;;;;7.14;93.81;102223.13;5063453;28;20451;-77
2022/10/21 02:54:47;;;;;;;43.70;41.60;;;;;;;7.06;93.66;102225.66;5073642;28;20045;-77
2022/10/21 02:57:14;;;;;;;42.47;40.30;;;;;;;7.12;92.92;102219.78;5069503;28;20045;-77
2022/10/21 02:59:41;;;;;;;43.40;41.20;;;;;;;7.14;93.33;102222.25;5010254;28;20061;-79
2022/10/21 03:02:08;;;;;;;43.47;40.95;;;;;;;7.09;94.16;102226.19;5047365;28;20489;-76
2022/10/21 03:04:34;;;;;;;40.10;38.03;;;;;;;7.02;93.31;102225.13;5044669;28;20078;-78
2022/10/21 03:07:03;;;;;;;40.90;38.70;;;;;;;6.97;94.60;102226.53;5052275;28;20456;-77
2022/10/21 03:09:30;;;;;;;41.65;39.33;;;;;;;7.04;93.05;102220.50;5057336;28;20049;-76
2022/10/21 03:11:57;;;;;;;42.20;40.08;;;;;;;7.00;94.10;102223.59;5050576;28;20106;-77
2022/10/21 03:14:23;;;;;;;41.78;39.63;;;;;;;6.93;95.17;102212.78;5057567;28;20049;-78
2022/10/21 03:16:50;;;;;;;40.25;38.05;;;;;;;6.87;96.40;102224.75;5053105;28;20045;-78
2022/10/21 03:19:17;;;;;;;41.72;39.28;;;;;;;6.84;95.99;102227.69;5054410;28;20472;-77
2022/10/21 03:21:45;;;;;;;44.10;41.47;;;;;;;6.76;96.51;102224.91;5049392;28;20847;-79
2022/10/21 03:24:13;;;;;;;42.97;40.00;;;;;;;6.76;97.70;102219.63;5052706;28;20045;-81
2022/10/21 03:26:40;;;;;;;42.38;39.88;;;;;;;6.62;97.84;102217.44;5045891;28;20103;-80
2022/10/21 03:29:07;;;;;;;41.72;38.75;;;;;;;6.67;98.63;102225.78;5052664;28;20041;-79
2022/10/21 03:31:34;;;;;;;40.65;38.22;;;;;;;6.52;99.54;102227.22;5045229;28;20477;-79
2022/10/21 03:34:01;;;;;;;40.97;38.63;;;;;;;6.46;100.00;102219.88;5050762;28;20482;-80
2022/10/21 03:36:27;;;;;;;53.08;50.08;;;;;;;6.38;100.00;102228.47;5052514;28;20551;-77
2022/10/21 03:38:54;;;;;;;52.42;49.22;;;;;;;6.31;100.00;102228.22;5056145;28;20543;-79
2022/10/21 03:41:22;;;;;;;52.33;49.15;;;;;;;6.29;100.00;102226.69;5047698;28;20126;-79
2022/10/21 03:43:49;;;;;;;58.70;55.28;;;;;;;6.28;100.00;102222.41;5048634;28;20134;-76
2022/10/21 03:46:16;;;;;;;47.05;44.35;;;;;;;6.10;100.00;102223.09;5048963;28;20061;-78
2022/10/21 03:48:43;;;;;;;50.92;47.80;;;;;;;6.05;100.00;102225.34;5056086;28;20044;-79
2022/10/21 03:51:10;;;;;;;52.25;49.03;;;;;;;6.06;100.00;102219.06;5045759;28;20045;-80
2022/10/21 03:53:36;;;;;;;47.90;44.83;;;;;;;6.12;100.00;102218.53;5053744;28;20056;-79
2022/10/21 03:56:03;;;;;;;44.83;42.05;;;;;;;6.05;100.00;102224.47;5050003;28;20053;-76
2022/10/21 03:58:34;;;;;;;48.65;46.08;;;;;;;5.97;100.00;102212.00;5059093;28;20049;-78
2022/10/21 04:01:01;;;;;;;82.95;77.05;;;;;;;5.92;100.00;102214.19;5055235;28;20106;-77
2022/10/21 04:03:28;;;;;;;87.93;81.13;;;;;;;5.87;100.00;102214.63;5052928;28;20111;-77
2022/10/21 04:05:55;;;;;;;49.85;47.03;;;;;;;5.90;100.00;102210.84;5045498;28;20079;-79
2022/10/21 04:08:22;;;;;;;51.72;48.83;;;;;;;5.92;100.00;102208.91;5055653;28;20047;-81
2022/10/21 04:10:49;;;;;;;51.95;48.92;;;;;;;5.80;100.00;102204.75;5053574;28;20048;-77
2022/10/21 04:13:16;;;;;;;51.25;48.45;;;;;;;5.71;100.00;102206.41;5052178;28;20484;-78
2022/10/21 04:15:44;;;;;;;51.55;48.35;;;;;;;5.70;100.00;102208.22;5049679;28;20049;-77
2022/10/21 04:18:11;;;;;;;51.72;48.92;;;;;;;5.66;100.00;102198.91;5053091;28;20059;-80
2022/10/21 04:20:38;;;;;;;47.88;45.08;;;;;;;5.70;100.00;102210.84;5060248;28;20049;-80
2022/10/21 04:23:04;;;;;;;45.53;42.95;;;;;;;5.71;100.00;102203.75;5053064;28;20557;-78
2022/10/21 04:25:31;;;;;;;43.13;40.13;;;;;;;5.69;100.00;102213.63;5053976;28;20123;-78
2022/10/21 04:27:58;;;;;;;45.30;42.70;;;;;;;5.52;100.00;102196.69;5052929;28;20045;-79
2022/10/21 04:30:25;;;;;;;42.75;40.25;;;;;;;5.42;100.00;102207.22;5056289;28;20530;-78
2022/10/21 04:32:53;;;;;;;42.90;39.67;;;;;;;5.40;100.00;102216.22;5062952;28;20044;-78
2022/10/21 04:35:20;;;;;;;42.70;39.95;;;;;;;5.38;100.00;102212.88;5056484;28;20057;-80
2022/10/21 04:37:47;;;;;;;43.08;40.58;;;;;;;5.17;100.00;102212.94;5048707;28;20041;-77
2022/10/21 04:40:14;;;;;;;41.80;39.40;;;;;;;4.99;100.00;102210.97;5050972;28;20459;-77
2022/10/21 04:42:41;;;;;;;43.88;41.17;;;;;;;5.12;100.00;102210.72;5050599;28;20433;-78
2022/10/21 04:45:09;;;;;;;44.55;41.80;;;;;;;4.90;100.00;102210.91;5061150;28;20488;-78
2022/10/21 04:47:35;;;;;;;44.95;42.05;;;;;;;4.88;100.00;102218.13;5062288;28;20040;-79
2022/10/21 04:50:04;;;;;;;44.92;42.33;;;;;;;5.15;100.00;102209.63;5055841;28;20045;-77
2022/10/21 04:52:31;;;;;;;46.28;43.08;;;;;;;5.15;100.00;102212.25;5049923;28;20628;-77
2022/10/21 04:54:58;;;;;;;46.50;43.58;;;;;;;5.17;100.00;102218.22;5056196;28;20049;-79
2022/10/21 04:57:28;;;;;;;43.13;40.67;;;;;;;5.13;100.00;102215.03;5049630;28;20530;-79
2022/10/21 04:59:54;;;;;;;45.80;43.10;;;;;;;5.29;100.00;102219.78;5060413;28;20056;-77
2022/10/21 05:02:21;;;;;;;45.22;42.50;;;;;;;5.22;100.00;102221.28;5053662;28;20110;-78
2022/10/21 05:04:49;;;;;;;47.50;44.47;;;;;;;5.22;100.00;102218.66;5053926;28;20099;-77
2022/10/21 05:07:17;;;;;;;50.45;47.35;;;;;;;5.27;100.00;102216.47;5054142;28;20115;-78
2022/10/21 05:09:44;;;;;;;51.88;48.63;;;;;;;5.38;100.00;102223.41;5054967;28;20118;-77
2022/10/21 05:12:10;;;;;;;52.20;49.20;;;;;;;5.50;100.00;102220.50;5053541;28;20049;-78
2022/10/21 05:14:37;;;;;;;50.15;47.03;;;;;;;5.65;100.00;102223.59;5049618;28;20110;-77
2022/10/21 05:17:04;;;;;;;51.22;48.00;;;;;;;5.67;100.00;102231.38;5053899;28;20114;-77
2022/10/21 05:19:31;;;;;;;50.70;47.60;;;;;;;5.86;100.00;102223.47;5056643;28;20052;-77
2022/10/21 05:21:58;;;;;;;49.00;46.00;;;;;;;5.87;100.00;102230.44;5050305;28;20572;-78
2022/10/21 05:24:26;;;;;;;46.13;43.33;;;;;;;6.01;100.00;102225.75;5054139;28;20045;-78
2022/10/21 05:26:53;;;;;;;46.63;43.53;;;;;;;6.07;100.00;102233.09;5055743;28;20110;-78
2022/10/21 05:29:21;;;;;;;42.78;40.08;;;;;;;6.35;100.00;102234.03;5052170;28;20110;-78
2022/10/21 05:31:48;;;;;;;46.10;43.30;;;;;;;6.31;100.00;102233.50;5055228;28;20075;-78
2022/10/21 05:34:14;;;;;;;41.60;39.40;;;;;;;6.51;100.00;102244.03;5055637;28;20477;-78
2022/10/21 05:36:41;;;;;;;45.70;42.67;;;;;;;6.45;100.00;102242.78;5048807;28;20049;-78
2022/10/21 05:39:10;;;;;;;41.42;39.15;;;;;;;6.40;100.00;102245.00;5052107;28;20107;-77
2022/10/21 05:41:38;;;;;;;42.92;40.13;;;;;;;6.63;100.00;102250.81;5054732;28;20103;-77
2022/10/21 05:44:05;;;;;;;46.03;43.65;;;;;;;6.48;100.00;102253.06;5053692;28;20053;-79
2022/10/21 05:46:32;;;;;;;44.03;41.53;;;;;;;6.38;100.00;102247.81;5057893;28;20102;-79
2022/10/21 05:49:00;;;;;;;42.88;40.17;;;;;;;6.47;100.00;102259.31;5056277;28;20049;-80
2022/10/21 05:51:27;;;;;;;46.15;42.70;;;;;;;6.52;100.00;102251.81;5049437;28;20515;-79
2022/10/21 05:53:57;;;;;;;53.03;48.67;;;;;;;6.40;100.00;102253.75;5053981;28;20497;-80
2022/10/21 05:56:24;;;;;;;52.38;47.80;;;;;;;6.52;100.00;102253.63;5053334;28;20108;-77
2022/10/21 05:58:52;;;;;;;46.47;43.67;;;;;;;6.36;100.00;102251.56;5053108;28;20044;-77
2022/10/21 06:01:19;;;;;;;45.13;42.08;;;;;;;6.60;100.00;102251.09;5051225;28;20048;-79
2022/10/21 06:03:46;;;;;;;42.13;39.50;;;;;;;6.58;100.00;102255.69;5044759;28;20067;-78
2022/10/21 06:06:13;;;;;;;41.47;39.03;;;;;;;6.67;100.00;102259.28;5054408;28;20053;-84
2022/10/21 06:08:40;;;;;;;43.20;40.47;;;;;;;6.96;100.00;102265.31;5052235;28;20459;-80
2022/10/21 06:11:09;;;;;;;42.00;39.70;;;;;;;7.28;100.00;102253.50;5055994;28;20465;-80
2022/10/21 06:13:36;;;;;;;41.67;39.38;;;;;;;7.38;100.00;102256.91;5055438;28;20114;-81
2022/10/21 06:16:06;;;;;;;41.75;39.53;;;;;;;7.51;100.00;102260.06;5049183;28;20563;-80
2022/10/21 06:18:33;;;;;;;42.35;39.85;;;;;;;7.97;99.47;102252.09;5053280;28;20041;-79
2022/10/21 06:21:00;;;;;;;43.45;40.65;;;;;;;8.07;95.57;102258.13;5062024;28;20048;-77
2022/10/21 06:23:27;;;;;;;44.50;41.67;;;;;;;8.09;93.92;102253.53;5051049;28;20107;-77
2022/10/21 06:25:58;;;;;;;44.47;41.60;;;;;;;8.42;93.65;102254.66;5053588;28;20065;-77
2022/10/21 06:28:26;;;;;;;43.50;40.83;;;;;;;8.71;89.22;102254.38;4994361;28;20110;-77
2022/10/21 06:30:53;;;;;;;42.42;40.20;;;;;;;8.95;88.41;102261.59;5062258;28;20388;-80
2022/10/21 06:33:22;;;;;;;42.85;40.38;;;;;;;8.81;85.40;102261.38;5064701;28;20045;-80
2022/10/21 06:35:49;;;;;;;44.28;41.47;;;;;;;9.24;84.62;102257.78;5066472;28;20045;-79
2022/10/21 06:38:17;;;;;;;41.22;39.03;;;;;;;9.06;85.94;102262.34;5070000;28;20531;-77
2022/10/21 06:40:44;;;;;;;41.25;39.05;;;;;;;9.47;80.45;102255.38;5069046;28;20128;-78
2022/10/21 06:43:11;;;;;;;42.95;40.65;;;;;;;9.57;78.91;102249.94;5065889;28;20036;-77
2022/10/21 06:45:38;;;;;;;45.90;43.40;;;;;;;9.94;74.13;102241.53;5070938;28;20044;-79
2022/10/21 06:48:06;;;;;;;43.45;41.15;;;;;;;10.62;69.90;102242.19;5075945;28;20470;-78
2022/10/21 06:50:34;;;;;;;43.08;40.78;;;;;;;11.09;71.93;102239.56;5071292;28;20041;-81
2022/10/21 06:53:01;;;;;;;48.67;45.97;;;;;;;10.70;66.67;102247.50;5070816;28;20505;-78
2022/10/21 06:55:28;;;;;;;51.60;48.90;;;;;;;10.81;65.71;102241.84;5072019;28;20476;-81
2022/10/21 06:57:54;;;;;;;53.05;50.13;;;;;;;10.84;66.27;102245.97;5068256;28;20073;-79
2022/10/21 07:00:21;;;;;;;44.25;41.70;;;;;;;10.85;65.98;102244.97;5069922;28;20044;-78
2022/10/21 07:02:48;;;;;;;45.13;42.40;;;;;;;11.10;66.86;102237.75;5076492;28;20048;-79
2022/10/21 07:05:15;;;;;;;43.90;41.20;;;;;;;11.42;63.64;102234.13;5066479;28;20052;-78
2022/10/21 07:07:43;;;;;;;43.78;41.25;;;;;;;11.44;62.81;102230.28;5068000;28;20121;-78
2022/10/21 07:10:09;;;;;;;43.50;41.10;;;;;;;11.94;59.63;102244.13;5072934;28;20044;-77
2022/10/21 07:12:37;;;;;;;46.42;43.83;;;;;;;11.75;58.27;102237.41;5069667;28;20041;-80
2022/10/21 07:15:04;;;;;;;48.10;44.40;;;;;;;12.38;58.62;102240.78;5070089;28;20424;-80
2022/10/21 07:17:31;;;;;;;45.20;42.70;;;;;;;12.44;57.27;102237.38;5064607;28;20048;-78
2022/10/21 07:19:58;;;;;;;44.00;41.53;;;;;;;12.33;55.95;102233.31;5072667;28;20041;-81
2022/10/21 07:22:24;;;;;;;42.47;40.25;;;;;;;12.43;53.30;102237.56;5065888;28;20641;-81
2022/10/21 07:24:53;;;;;;;45.58;42.65;;;;;;;11.95;54.33;102235.13;5069616;28;20056;-80
2022/10/21 07:27:19;;;;;;;46.88;44.25;;;;;;;12.87;52.97;102229.59;5072532;28;20044;-78
2022/10/21 07:29:46;;;;;;;48.13;45.22;;;;;;;12.92;53.01;102229.88;5065432;28;20048;-81
2022/10/21 07:32:13;;;;;;;43.15;40.60;;;;;;;13.77;50.74;102227.59;5070571;28;20450;-79
2022/10/21 07:34:40;;;;;;;40.60;37.92;;;;;;;12.70;50.84;102233.47;5072085;28;20052;-81
2022/10/21 07:37:07;;;;;;;41.47;39.13;;;;;;;13.12;51.44;102230.13;5072152;28;20121;-78
2022/10/21 07:39:34;;;;;;;43.75;40.95;;;;;;;14.04;49.45;102226.00;5066125;28;20121;-78
2022/10/21 07:42:02;;;;;;;46.08;42.88;;;;;;;14.39;48.56;102232.25;5071349;28;20060;-80
2022/10/21 07:44:29;;;;;;;44.35;41.60;;;;;;;14.21;48.05;102220.19;5068743;28;20041;-78
2022/10/21 07:46:56;;;;;;;42.30;39.53;;;;;;;14.06;48.04;102222.13;5070423;28;20049;-78
2022/10/21 07:49:23;;;;;;;41.80;39.42;;;;;;;14.89;46.71;102220.47;5061684;28;20111;-79
2022/10/21 07:51:50;;;;;;;40.95;38.50;;;;;;;14.93;45.13;102220.91;5074469;28;20630;-79
2022/10/21 07:54:18;;;;;;;52.80;49.90;;;;;;;15.02;46.34;102218.91;5075860;28;20101;-78
2022/10/21 07:56:47;;;;;;;47.78;45.03;;;;;;;14.95;45.30;102212.66;5074420;28;20118;-78
2022/10/21 07:59:17;;;;;;;48.78;46.08;;;;;;;14.89;45.11;102215.13;5070123;28;20073;-78
2022/10/21 08:01:46;;;;;;;51.72;49.13;;;;;;;14.93;46.76;102212.06;5071050;28;20056;-78
2022/10/21 08:04:14;;;;;;;51.22;48.20;;;;;;;15.02;45.83;102203.66;5075975;28;20555;-77
2022/10/21 08:06:42;;;;;;;53.25;50.47;;;;;;;15.32;43.73;102211.41;5072491;28;20113;-79
2022/10/21 08:09:09;;;;;;;55.72;52.95;;;;;;;15.44;43.83;102204.44;5067048;28;20052;-82
2022/10/21 08:11:36;;;;;;;57.72;54.80;;;;;;;16.25;44.94;102207.00;5070919;28;20056;-81
2022/10/21 08:14:05;;;;;;;59.38;54.65;;;;;;;16.49;44.11;102210.09;5077912;28;20442;-78
2022/10/21 08:16:34;;;;;;;55.72;52.35;;;;;;;16.26;41.87;102214.00;5076097;28;20566;-78
2022/10/21 08:19:02;;;;;;;54.78;51.97;;;;;;;16.36;42.77;102207.41;5074103;28;20121;-78
2022/10/21 08:21:30;;;;;;;56.25;53.03;;;;;;;17.09;43.30;102208.06;5075140;28;20056;-78
2022/10/21 08:23:56;;;;;;;55.63;52.63;;;;;;;17.46;41.29;102211.00;5073248;28;20060;-78
2022/10/21 08:26:23;;;;;;;56.60;53.63;;;;;;;17.61;41.16;102191.91;5070204;28;20492;-80
2022/10/21 08:28:50;;;;;;;57.05;54.22;;;;;;;17.74;40.42;102194.47;5065914;28;20117;-78
2022/10/21 08:31:19;;;;;;;48.47;45.97;;;;;;;17.68;42.21;102189.97;5069997;28;20048;-78
2022/10/21 08:33:49;;;;;;;52.08;49.08;;;;;;;17.31;40.74;102192.47;5076528;28;20146;-78
2022/10/21 08:36:19;;;;;;;55.58;52.58;;;;;;;17.89;41.12;102190.69;5077353;28;20494;-78
2022/10/21 08:38:46;;;;;;;53.63;50.78;;;;;;;18.02;41.31;102191.38;5069359;28;20102;-80
2022/10/21 08:41:35;;;;;;;52.50;49.80;;;;;;;18.18;40.23;102198.06;5067292;28;20052;-78
2022/10/21 08:44:06;;;;;;;63.90;60.30;;;;;;;18.86;39.40;102193.69;5067822;28;20052;-82
2022/10/21 08:46:37;;;;;;;53.92;51.22;;;;;;;18.25;39.64;102189.97;5075713;28;20044;-78
2022/10/21 08:49:13;;;;;;;52.35;49.72;;;;;;;18.63;41.98;102183.56;5076554;28;20052;-80
2022/10/21 08:51:46;;;;;;;54.17;51.28;;;;;;;19.03;42.00;102177.72;5063035;28;20096;-77
2022/10/21 08:54:19;;;;;;;54.65;51.25;;;;;;;19.55;38.58;102178.88;5075940;28;20052;-78
2022/10/21 08:56:47;;;;;;;60.95;57.50;;;;;;;20.10;38.79;102183.22;5077320;28;20121;-79
2022/10/21 08:59:20;;;;;;;54.42;51.13;;;;;;;20.35;37.83;102182.97;5075515;28;20048;-78
2022/10/21 09:01:56;;;;;;;56.70;53.00;;;;;;;19.52;38.54;102192.00;5077765;28;20436;-79
2022/10/21 09:04:33;;;;;;;55.85;52.95;;;;;;;19.80;37.81;102186.81;5070232;28;20036;-81
2022/10/21 09:07:08;;;;;;;52.80;49.72;;;;;;;20.26;38.16;102193.28;5076596;28;20048;-77
2022/10/21 09:09:42;;;;;;;54.60;51.70;;;;;;;20.24;40.75;102195.41;5073859;28;20113;-80
2022/10/21 09:12:17;;;;;;;55.60;52.65;;;;;;;20.88;38.64;102191.91;5077751;28;20052;-77
2022/10/21 09:15:10;;;;;;;46.97;44.30;;;;;;;20.77;37.57;102183.63;5073563;28;20060;-78
2022/10/21 09:17:51;;;;;;;50.08;47.17;;;;;;;20.26;38.40;102176.28;5060913;28;20052;-78
2022/10/21 09:20:28;;;;;;;50.88;48.25;;;;;;;20.37;39.78;102180.84;5063519;28;20049;-78
2022/10/21 09:23:02;;;;;;;52.08;49.13;;;;;;;20.58;38.25;102174.06;5065771;28;20056;-78
2022/10/21 09:25:33;;;;;;;52.97;49.78;;;;;;;20.53;39.41;102180.16;5074567;28;20098;-78
2022/10/21 09:28:02;;;;;;;52.20;49.45;;;;;;;20.84;38.28;102188.88;5072558;28;20049;-78
2022/10/21 09:30:28;;;;;;;51.47;48.58;;;;;;;21.37;40.67;102178.88;5069933;28;20113;-77
2022/10/21 09:32:57;;;;;;;53.15;49.95;;;;;;;20.92;41.07;102187.69;5077905;28;20141;-81
2022/10/21 09:35:32;;;;;;;48.92;46.13;;;;;;;22.28;38.25;102173.31;5087067;28;20044;-79
2022/10/21 09:38:05;;;;;;;48.25;44.95;;;;;;;22.63;36.62;102165.69;5066117;28;20113;-78
2022/10/21 09:40:33;;;;;;;47.65;44.85;;;;;;;22.93;35.52;102168.97;5075346;28;20551;-83
2022/10/21 09:43:01;;;;;;;48.72;45.92;;;;;;;23.08;34.51;102155.63;5082991;28;20056;-80
2022/10/21 09:45:32;;;;;;;47.25;44.47;;;;;;;22.07;36.57;102162.16;5082604;28;20048;-78
2022/10/21 09:48:02;;;;;;;46.83;44.00;;;;;;;22.21;35.03;102148.31;5075058;28;20053;-78
2022/10/21 09:50:31;;;;;;;44.58;41.90;;;;;;;22.23;34.63;102152.41;5067703;28;20052;-82
2022/10/21 09:53:04;;;;;;;46.17;43.45;;;;;;;22.17;36.90;102151.50;5067390;28;20048;-79
2022/10/21 09:55:32;;;;;;;46.28;43.45;;;;;;;21.53;36.70;102147.50;5077939;28;20110;-78
2022/10/21 09:58:00;;;;;;;44.47;41.67;;;;;;;23.14;35.72;102135.63;5087987;28;20055;-80
2022/10/21 10:00:42;;;;;;;42.60;39.83;;;;;;;22.36;35.64;102137.69;5081152;28;20472;-79
2022/10/21 10:03:09;;;;;;;40.87;38.67;;;;;;;22.83;37.05;102134.47;5077364;28;20056;-79
2022/10/21 10:05:42;;;;;;;40.05;37.63;;;;;;;23.18;36.00;102128.66;5075148;28;20310;-78
2022/10/21 10:08:37;;;;;;;42.95;40.50;;;;;;;22.63;36.00;102126.94;5074011;28;20075;-78
2022/10/21 10:11:21;;;;;;;41.47;39.08;;;;;;;23.87;34.53;102119.72;5072287;28;20045;-80
2022/10/21 10:13:49;;;;;;;40.33;37.95;;;;;;;22.58;37.01;102127.69;5069819;28;20044;-78
2022/10/21 10:16:22;;;;;;;40.70;38.30;;;;;;;24.11;33.47;102122.03;5084360;28;20130;-78
2022/10/21 10:18:50;;;;;;;42.55;39.72;;;;;;;24.36;34.09;102118.66;5073539;28;20044;-81
2022/10/21 10:21:19;;;;;;;41.10;38.67;;;;;;;24.44;33.75;102110.81;5071283;28;20477;-78
2022/10/21 10:23:51;;;;;;;42.95;40.47;;;;;;;24.74;33.62;102113.91;5077353;28;20053;-79
2022/10/21 10:26:22;;;;;;;43.00;40.38;;;;;;;23.98;33.55;102104.34;5075202;28;20052;-78
2022/10/21 10:28:56;;;;;;;48.38;45.40;;;;;;;24.84;32.28;102100.34;5071526;28;20048;-77
2022/10/21 10:31:30;;;;;;;59.28;56.00;;;;;;;24.69;32.75;102095.72;5068127;28;20517;-78
2022/10/21 10:33:59;;;;;;;54.65;51.55;;;;;;;21.83;34.86;102085.81;5077936;28;20460;-80
2022/10/21 10:36:31;;;;;;;50.50;47.33;;;;;;;22.71;38.53;102079.63;5074743;28;20040;-80
2022/10/21 10:39:01;;;;;;;59.22;55.72;;;;;;;21.15;41.81;102084.13;5070657;28;20045;-77
2022/10/21 10:41:35;;;;;;;55.13;51.90;;;;;;;22.76;38.16;102069.69;5072429;28;20584;-78
2022/10/21 10:44:09;;;;;;;50.75;47.70;;;;;;;21.42;39.86;102073.53;5077336;28;20385;-78
2022/10/21 10:46:37;;;;;;;52.70;49.80;;;;;;;22.85;35.24;102065.44;5068416;28;20049;-79
2022/10/21 10:49:06;;;;;;;54.42;51.20;;;;;;;21.95;36.55;102066.78;5076072;28;20052;-81
2022/10/21 10:51:35;;;;;;;58.58;55.17;;;;;;;23.25;35.77;102064.22;5065736;28;20485;-78
2022/10/21 10:54:17;;;;;;;56.45;52.95;;;;;;;20.81;39.01;102070.56;5068868;28;20481;-78
2022/10/21 10:56:50;;;;;;;43.00;40.30;;;;;;;19.52;41.52;102066.16;5077905;28;20052;-79
2022/10/21 10:59:24;;;;;;;41.78;39.40;;;;;;;21.16;39.82;102056.88;5069088;28;20104;-77
2022/10/21 11:01:57;;;;;;;40.47;37.58;;;;;;;23.06;36.39;102049.41;5063611;28;20103;-80
2022/10/21 11:04:32;;;;;;;39.63;37.13;;;;;;;24.59;33.40;102047.59;5074291;28;20047;-83
2022/10/21 11:07:08;;;;;;;40.88;38.17;;;;;;;24.40;33.96;102049.16;5070508;28;20113;-78
2022/10/21 11:09:35;;;;;;;41.35;38.45;;;;;;;23.05;35.26;102051.28;5070795;28;20052;-78
2022/10/21 11:12:10;;;;;;;43.33;40.35;;;;;;;24.68;33.36;102056.84;5075081;28;20056;-78
2022/10/21 11:14:37;;;;;;;41.67;39.38;;;;;;;24.35;35.26;102052.66;5075714;28;20101;-78
2022/10/21 11:17:11;;;;;;;41.88;39.30;;;;;;;23.91;35.37;102044.06;5081761;28;20134;-80
2022/10/21 11:19:49;;;;;;;42.85;39.90;;;;;;;23.84;33.44;102041.56;5076519;28;20064;-78
2022/10/21 11:22:26;;;;;;;40.92;38.42;;;;;;;23.22;36.33;102025.97;5069648;28;20118;-80
2022/10/21 11:24:58;;;;;;;45.17;42.20;;;;;;;23.42;36.80;102038.84;5074180;28;20052;-77